EHGG/GRQ METAR and TAF weather

Enter ICAO airport designator
Station Type Date Time Source
EHGG METAR 2022/07/03 14:55 UTC NOAA

EHGG 031455Z AUTO 27006KT 230V320 9999 FEW015CB 17/15 Q1017 RETS TEMPO 27015G25KT 6000 SHRA FEW025CB


Station Type Date Time Source
EHGG Decoded METAR 2022/07/03 14:55 UTC NOAA

Groningen Airport Eelde, Netherlands (EHGG) 53-08N 006-35E 4M
Jul 03, 2022 - 10:55 AM EDT / 2022.07.03 1455 UTC
Wind: from the W (270 degrees) at 7 MPH (6 KT) (direction variable):0
Visibility: greater than 7 mile(s):0
Sky conditions: mostly clear
Weather: Cumulonimbus clouds observed
Temperature: 62 F (17 C)
Dew Point: 59 F (15 C)
Relative Humidity: 88%
Pressure (altimeter): 30.03 in. Hg (1017 hPa)
ob: EHGG 031455Z AUTO 27006KT 230V320 9999 FEW015CB 17/15 Q1017 RETS TEMPO 27015G25KT 6000 SHRA FEW025CB
cycle: 15

Station Type Date Time Source
EHGG TAF 2022/07/03 12:27 UTC NOAA

TAF EHGG 031051Z 0312/0418 27010KT CAVOK PROB30
TEMPO 0313/0317 5000 SHRA SCT030CB
BECMG 0318/0321 24005KT
BECMG 0409/0412 27011KT

Example: see airport list